Paden, Mississippi
Current Conditions -  °F | °C
As of 1:35 PM on Tuesday 21 Oct 2014 (Local Time) from KCRX Reporting Station
Clear Clear  
Wind Chill: 73°   Ceiling: Unl
Heat Index: 73°   Visibility: 10mi
Dew Point: 45°   Wind: 7mph
Humidity: 36%   Direction: 350°N
Pressure: 30.05"   Gusts: NA
Location:  34.6475°N, 88.2106°W
Report Text: KCRX 211835Z AUTO 35006KT 320V020 10SM CLR 23/07 A3005 RMK AO2
Loading
Personal Weather Stations






























Interactive Weather Map New forecast layout! Learn more

10-Day Weather Forecast

Advertisements
Track Severe Weather on mobile